Time;durP1;ratioP1;P1;durP2;ratioP2;P2;SDS_P1;SDS_P2;PMS_P1;PMS_P2;Temp;Humidity;BMP_temperature;BMP_pressure;BME280_temperature;BME280_humidity;BME280_pressure;Samples;Min_cycle;Max_cycle;Signal;HPM_P1;HPM_P2
2023/11/11 05:30:58;;;;;;;0.10;0.10;;;7.70;85.40;;;;;;5720185;23;20053;-74
2023/11/11 05:33:24;;;;;;;0.10;0.10;;;7.70;85.30;;;;;;5014621;28;20057;-77
2023/11/11 05:35:50;;;;;;;0.10;0.10;;;7.70;85.30;;;;;;5036287;28;20067;-74
2023/11/11 05:38:15;;;;;;;0.10;0.10;;;7.70;85.30;;;;;;5036509;28;20040;-76
2023/11/11 05:40:41;;;;;;;0.10;0.10;;;7.70;85.40;;;;;;5036529;28;20025;-76
2023/11/11 05:43:08;;;;;;;0.17;0.17;;;7.70;85.40;;;;;;5036475;28;21147;-76
2023/11/11 05:45:34;;;;;;;0.10;0.10;;;7.70;85.60;;;;;;5035729;28;20021;-76
2023/11/11 05:48:00;;;;;;;0.10;0.10;;;7.70;85.50;;;;;;5036063;28;20034;-76
2023/11/11 05:50:25;;;;;;;0.20;0.20;;;7.70;85.60;;;;;;5018908;28;20487;-74
2023/11/11 05:52:51;;;;;;;0.10;0.10;;;7.70;85.50;;;;;;5036448;28;20041;-76
2023/11/11 05:55:17;;;;;;;0.10;0.10;;;7.70;85.60;;;;;;5018327;28;20108;-74
2023/11/11 05:57:42;;;;;;;0.13;0.13;;;7.70;85.70;;;;;;5018510;28;20093;-74
2023/11/11 06:00:11;;;;;;;0.10;0.10;;;7.70;85.70;;;;;;5039435;28;20022;-74
2023/11/11 06:02:37;;;;;;;0.10;0.10;;;7.70;85.60;;;;;;5038472;28;20025;-74
2023/11/11 06:05:03;;;;;;;0.20;0.20;;;7.70;85.80;;;;;;5040071;28;20021;-74
2023/11/11 06:07:29;;;;;;;0.10;0.10;;;7.60;86.00;;;;;;5040427;28;20056;-74
2023/11/11 06:09:55;;;;;;;0.10;0.10;;;7.60;85.90;;;;;;5040440;28;20076;-75
2023/11/11 06:12:20;;;;;;;0.10;0.10;;;7.60;86.10;;;;;;5040378;28;20022;-74
2023/11/11 06:14:46;;;;;;;0.10;0.10;;;7.60;86.00;;;;;;5018702;28;20029;-75
2023/11/11 06:17:12;;;;;;;0.10;0.10;;;7.60;86.10;;;;;;5012767;28;20476;-74
2023/11/11 06:19:37;;;;;;;0.10;0.10;;;7.60;85.80;;;;;;5040360;28;20049;-74
2023/11/11 06:22:04;;;;;;;0.10;0.10;;;7.60;85.90;;;;;;5022387;28;20029;-74
2023/11/11 06:24:33;;;;;;;0.10;0.10;;;7.60;86.00;;;;;;5022266;28;20029;-75
2023/11/11 06:26:58;;;;;;;0.10;0.10;;;7.70;85.90;;;;;;5039285;28;20092;-75
2023/11/11 06:29:24;;;;;;;0.10;0.10;;;7.70;85.90;;;;;;5039963;28;20033;-75
2023/11/11 06:31:52;;;;;;;0.10;0.10;;;7.70;86.00;;;;;;5019039;28;20057;-75
2023/11/11 06:34:19;;;;;;;0.10;0.10;;;7.70;85.90;;;;;;5019034;28;20057;-74
2023/11/11 06:36:45;;;;;;;0.13;0.13;;;7.70;86.00;;;;;;5017268;28;20033;-77
2023/11/11 06:39:13;;;;;;;0.15;0.15;;;7.70;85.90;;;;;;5019340;28;20060;-76
2023/11/11 06:41:39;;;;;;;0.10;0.10;;;7.70;86.00;;;;;;5019944;28;20050;-77
2023/11/11 06:44:05;;;;;;;0.10;0.10;;;7.70;86.00;;;;;;5019242;28;20033;-77
2023/11/11 06:46:30;;;;;;;0.10;0.10;;;7.70;85.90;;;;;;5019016;28;20022;-78
2023/11/11 06:48:58;;;;;;;0.10;0.10;;;7.70;85.80;;;;;;5019768;28;20029;-77
2023/11/11 06:51:27;;;;;;;0.15;0.15;;;7.70;85.80;;;;;;5018022;28;20018;-78
2023/11/11 06:53:53;;;;;;;0.10;0.10;;;7.70;85.80;;;;;;5000136;28;20461;-79
2023/11/11 06:56:19;;;;;;;0.20;0.20;;;7.70;85.80;;;;;;4999955;28;20433;-78
2023/11/11 06:58:45;;;;;;;0.10;0.10;;;7.70;85.80;;;;;;4999822;28;20511;-79
2023/11/11 07:01:11;;;;;;;0.10;0.10;;;7.70;85.70;;;;;;5001963;28;20057;-79
2023/11/11 07:03:39;;;;;;;0.10;0.10;;;7.70;85.60;;;;;;5019339;28;20429;-78
2023/11/11 07:06:07;;;;;;;0.15;0.15;;;7.70;85.60;;;;;;5009443;28;20491;-78
2023/11/11 07:08:33;;;;;;;0.20;0.20;;;7.70;85.50;;;;;;4999664;28;20030;-78
2023/11/11 07:11:00;;;;;;;0.10;0.10;;;7.70;85.50;;;;;;4999138;28;20029;-78
2023/11/11 07:13:27;;;;;;;0.10;0.10;;;7.70;85.50;;;;;;4998644;28;20065;-78
2023/11/11 07:15:52;;;;;;;0.10;0.10;;;7.70;85.60;;;;;;4999588;28;20102;-78
2023/11/11 07:18:18;;;;;;;0.10;0.10;;;7.70;85.60;;;;;;5021430;28;20038;-78
2023/11/11 07:20:44;;;;;;;0.10;0.10;;;7.70;85.70;;;;;;5021036;28;20036;-77
2023/11/11 07:23:11;;;;;;;0.10;0.10;;;7.70;85.70;;;;;;5018558;28;20026;-78
2023/11/11 07:25:38;;;;;;;0.10;0.10;;;7.70;85.80;;;;;;5016476;28;20030;-78
2023/11/11 07:28:04;;;;;;;0.13;0.13;;;7.70;85.70;;;;;;5017451;28;20030;-78
2023/11/11 07:30:30;;;;;;;0.10;0.10;;;7.80;85.70;;;;;;5013004;28;20034;-76
2023/11/11 07:32:58;;;;;;;0.10;0.10;;;7.80;85.50;;;;;;5018873;28;20037;-77
2023/11/11 07:35:24;;;;;;;0.13;0.13;;;7.80;85.20;;;;;;5001269;28;20429;-78
2023/11/11 07:37:50;;;;;;;0.10;0.10;;;7.80;85.00;;;;;;5023096;28;20030;-79
2023/11/11 07:40:16;;;;;;;0.10;0.10;;;7.80;85.00;;;;;;5016959;28;20076;-76
2023/11/11 07:42:42;;;;;;;0.10;0.10;;;7.80;84.90;;;;;;5018800;28;20028;-78
2023/11/11 07:45:09;;;;;;;0.10;0.10;;;7.70;85.30;;;;;;5017752;28;20032;-77
2023/11/11 07:47:38;;;;;;;0.10;0.10;;;7.80;85.20;;;;;;5011231;28;20085;-79
2023/11/11 07:50:05;;;;;;;0.20;0.20;;;7.80;85.30;;;;;;5017481;28;20092;-78
2023/11/11 07:52:31;;;;;;;0.10;0.10;;;7.90;85.20;;;;;;5017795;28;20040;-78
2023/11/11 07:54:58;;;;;;;0.17;0.17;;;7.90;85.00;;;;;;5000951;28;20030;-77
2023/11/11 07:57:25;;;;;;;0.10;0.10;;;7.90;84.90;;;;;;5020442;28;20033;-77
2023/11/11 07:59:51;;;;;;;0.10;0.10;;;7.90;84.50;;;;;;5016001;28;20028;-76
2023/11/11 08:02:17;;;;;;;0.10;0.10;;;7.90;84.60;;;;;;5016714;28;20109;-76
2023/11/11 08:04:42;;;;;;;0.10;0.10;;;7.90;84.70;;;;;;4997116;28;20058;-76
2023/11/11 08:07:10;;;;;;;0.10;0.10;;;7.80;84.80;;;;;;5017150;28;20034;-76
2023/11/11 08:09:36;;;;;;;0.10;0.10;;;7.80;84.80;;;;;;5017043;28;20026;-80
2023/11/11 08:12:03;;;;;;;0.10;0.10;;;7.80;84.90;;;;;;5009579;28;20040;-79
2023/11/11 08:14:29;;;;;;;0.10;0.10;;;7.70;85.20;;;;;;5014850;28;20056;-79
2023/11/11 08:16:54;;;;;;;0.10;0.10;;;7.70;85.20;;;;;;5016656;28;20502;-79
2023/11/11 08:19:22;;;;;;;0.10;0.10;;;7.80;85.30;;;;;;4996740;28;20018;-83
2023/11/11 08:21:48;;;;;;;0.10;0.10;;;7.80;85.20;;;;;;5010539;28;20080;-76
2023/11/11 08:24:13;;;;;;;0.15;0.15;;;7.90;85.30;;;;;;5010731;28;20026;-81
2023/11/11 08:26:39;;;;;;;0.10;0.10;;;7.90;85.00;;;;;;4997822;28;20048;-81
2023/11/11 08:29:04;;;;;;;0.20;0.20;;;7.90;85.00;;;;;;4997635;28;20026;-78
2023/11/11 08:31:30;;;;;;;0.10;0.10;;;8.00;85.10;;;;;;5028176;28;20057;-78
2023/11/11 08:33:56;;;;;;;0.10;0.10;;;8.00;85.30;;;;;;5032395;28;20083;-78
2023/11/11 08:36:24;;;;;;;0.10;0.10;;;8.00;85.50;;;;;;5031819;28;20029;-83
2023/11/11 08:38:50;;;;;;;0.10;0.10;;;8.00;85.30;;;;;;5012547;28;20501;-79
2023/11/11 08:41:17;;;;;;;0.10;0.10;;;8.10;85.30;;;;;;5036254;28;20088;-83
2023/11/11 08:43:43;;;;;;;0.10;0.10;;;8.20;85.20;;;;;;5025803;28;20022;-77
2023/11/11 08:46:10;;;;;;;0.10;0.10;;;8.20;85.10;;;;;;5019721;28;20063;-82
2023/11/11 08:48:40;;;;;;;0.10;0.10;;;8.20;85.00;;;;;;5008410;28;20026;-78
2023/11/11 08:51:07;;;;;;;0.10;0.10;;;8.20;85.10;;;;;;5015071;28;20051;-79
2023/11/11 08:53:33;;;;;;;0.13;0.13;;;8.20;85.00;;;;;;5018009;28;20021;-79
2023/11/11 08:55:59;;;;;;;0.10;0.10;;;8.20;85.10;;;;;;5015563;28;20033;-76
2023/11/11 08:58:25;;;;;;;0.10;0.10;;;8.30;85.20;;;;;;5034457;28;20116;-77
2023/11/11 09:00:51;;;;;;;0.10;0.10;;;8.50;84.90;;;;;;5036055;28;20036;-78
2023/11/11 09:03:17;;;;;;;0.10;0.10;;;8.60;84.90;;;;;;5009485;28;20021;-77
2023/11/11 09:05:45;;;;;;;0.20;0.20;;;8.70;84.80;;;;;;5019242;28;20092;-82
2023/11/11 09:08:11;;;;;;;0.20;0.20;;;8.70;84.50;;;;;;5034746;28;20034;-77
2023/11/11 09:10:36;;;;;;;0.10;0.10;;;8.80;84.50;;;;;;5029151;28;20116;-78
2023/11/11 09:13:03;;;;;;;0.10;0.10;;;8.90;84.40;;;;;;5026681;28;20026;-81
2023/11/11 09:15:29;;;;;;;0.13;0.13;;;9.00;84.50;;;;;;5014606;28;20034;-81
2023/11/11 09:17:55;;;;;;;0.20;0.20;;;9.10;84.40;;;;;;5029826;28;20091;-79
2023/11/11 09:20:22;;;;;;;0.10;0.10;;;9.20;84.10;;;;;;5030323;28;20061;-80
2023/11/11 09:22:49;;;;;;;0.10;0.10;;;9.30;84.40;;;;;;5006453;28;20014;-78
2023/11/11 09:25:15;;;;;;;0.10;0.10;;;9.30;84.40;;;;;;5009259;28;20033;-79
2023/11/11 09:27:41;;;;;;;0.10;0.10;;;9.30;84.20;;;;;;5034763;28;20442;-79
2023/11/11 09:30:08;;;;;;;0.10;0.10;;;9.30;84.30;;;;;;5017986;28;20028;-78
2023/11/11 09:32:34;;;;;;;0.10;0.10;;;9.30;84.40;;;;;;5021401;28;20164;-78
2023/11/11 09:35:00;;;;;;;0.10;0.10;;;9.40;84.50;;;;;;5018488;28;20057;-79
2023/11/11 09:37:26;;;;;;;0.10;0.10;;;9.40;84.40;;;;;;5030063;28;20467;-78
2023/11/11 09:39:51;;;;;;;0.10;0.10;;;9.50;84.60;;;;;;5020057;28;20575;-78
2023/11/11 09:42:17;;;;;;;0.10;0.10;;;9.50;84.60;;;;;;5034993;28;20083;-80
2023/11/11 09:44:43;;;;;;;0.10;0.10;;;9.50;84.50;;;;;;5032941;28;20084;-80
2023/11/11 09:47:17;;;;;;;0.10;0.10;;;9.60;84.70;;;;;;5011348;28;20479;-83
2023/11/11 09:49:43;;;;;;;0.10;0.10;;;9.50;85.00;;;;;;5018607;28;20122;-82
2023/11/11 09:52:14;;;;;;;0.10;0.10;;;9.60;85.00;;;;;;5012447;28;20029;-83
2023/11/11 09:54:42;;;;;;;0.10;0.10;;;9.70;85.00;;;;;;5017119;28;20483;-76
2023/11/11 09:57:10;;;;;;;0.10;0.10;;;9.70;85.10;;;;;;5025519;28;20033;-77
2023/11/11 09:59:37;;;;;;;0.10;0.10;;;9.70;85.00;;;;;;5015179;28;20040;-77
2023/11/11 10:02:05;;;;;;;0.10;0.10;;;9.80;84.90;;;;;;5036540;28;20025;-75
2023/11/11 10:04:30;;;;;;;0.10;0.10;;;9.90;84.90;;;;;;5014859;28;20108;-80
2023/11/11 10:06:57;;;;;;;0.10;0.10;;;10.00;84.90;;;;;;5017093;28;20123;-80
2023/11/11 10:09:23;;;;;;;0.10;0.10;;;10.10;84.70;;;;;;5015598;28;20132;-81
2023/11/11 10:11:53;;;;;;;0.10;0.10;;;10.20;84.80;;;;;;5028976;28;20467;-81
2023/11/11 10:14:21;;;;;;;0.10;0.10;;;10.30;84.40;;;;;;5011434;28;20030;-82
2023/11/11 10:16:52;;;;;;;0.10;0.10;;;10.30;84.30;;;;;;5012325;28;20124;-81
2023/11/11 10:19:18;;;;;;;0.10;0.10;;;10.40;84.40;;;;;;5033192;28;20018;-82
2023/11/11 10:21:44;;;;;;;0.10;0.10;;;10.40;84.50;;;;;;5032236;28;20034;-82
2023/11/11 10:24:10;;;;;;;0.20;0.20;;;10.50;84.50;;;;;;5033886;28;20090;-82
2023/11/11 10:26:39;;;;;;;0.10;0.10;;;10.50;84.10;;;;;;5014055;28;20040;-85
2023/11/11 10:29:08;;;;;;;0.10;0.10;;;10.60;84.10;;;;;;4997328;28;20113;-80
2023/11/11 10:31:49;;;;;;;0.10;0.10;;;10.60;84.20;;;;;;5013642;28;20053;-84
2023/11/11 10:34:15;;;;;;;0.10;0.10;;;10.70;84.60;;;;;;5033332;28;20071;-79
2023/11/11 10:36:45;;;;;;;0.10;0.10;;;10.70;84.50;;;;;;5023790;28;20030;-80
2023/11/11 10:39:11;;;;;;;0.10;0.10;;;10.80;84.30;;;;;;5014593;28;20090;-77
2023/11/11 10:42:30;;;;;;;0.20;0.20;;;10.80;84.20;;;;;;5017277;28;20100;-88
2023/11/11 10:44:57;;;;;;;0.15;0.15;;;10.90;84.10;;;;;;5013532;28;20033;-80
2023/11/11 10:47:25;;;;;;;0.10;0.10;;;11.00;84.10;;;;;;5013440;28;20634;-80
2023/11/11 10:49:52;;;;;;;0.10;0.10;;;11.00;84.10;;;;;;5027338;28;20022;-79
2023/11/11 10:52:24;;;;;;;0.10;0.10;;;11.00;83.80;;;;;;5041754;28;20029;-90
2023/11/11 10:54:52;;;;;;;0.10;0.10;;;11.10;83.60;;;;;;5043480;28;20021;-75
2023/11/11 10:57:18;;;;;;;0.10;0.10;;;11.20;83.60;;;;;;5035333;28;20083;-77
2023/11/11 10:59:44;;;;;;;0.17;0.17;;;11.20;83.50;;;;;;5029373;28;20022;-78
2023/11/11 11:02:11;;;;;;;0.10;0.10;;;11.30;83.30;;;;;;5020549;28;20426;-75
2023/11/11 11:04:44;;;;;;;0.10;0.10;;;11.40;83.10;;;;;;5007607;28;20021;-75
2023/11/11 11:07:18;;;;;;;0.10;0.10;;;11.50;83.20;;;;;;5009376;28;20547;-75
2023/11/11 11:09:57;;;;;;;0.10;0.10;;;11.50;83.00;;;;;;5041023;28;20022;-76
2023/11/11 11:12:35;;;;;;;0.10;0.10;;;11.70;82.80;;;;;;5011429;28;20040;-77
2023/11/11 11:15:06;;;;;;;0.10;0.10;;;11.70;82.50;;;;;;5014774;28;20026;-76
2023/11/11 11:17:44;;;;;;;0.20;0.20;;;11.70;82.30;;;;;;5037610;28;20549;-78
2023/11/11 11:20:14;;;;;;;0.10;0.10;;;11.70;82.10;;;;;;5019756;28;20064;-75
2023/11/11 11:22:44;;;;;;;0.10;0.10;;;11.70;82.20;;;;;;5029003;28;20040;-76
2023/11/11 11:25:32;;;;;;;0.10;0.10;;;11.80;81.90;;;;;;5029299;28;20063;-74
2023/11/11 11:28:10;;;;;;;0.10;0.10;;;11.80;81.80;;;;;;5031886;28;20029;-75
2023/11/11 11:31:03;;;;;;;0.10;0.10;;;11.90;82.10;;;;;;5033497;28;20060;-75
2023/11/11 11:33:30;;;;;;;0.10;0.10;;;11.90;81.80;;;;;;5026184;28;20037;-75
2023/11/11 11:36:06;;;;;;;0.10;0.10;;;11.90;81.60;;;;;;5030042;28;20487;-77
2023/11/11 11:38:34;;;;;;;0.10;0.10;;;11.90;81.50;;;;;;5032464;28;20377;-77
2023/11/11 11:41:02;;;;;;;0.10;0.10;;;11.90;81.40;;;;;;5008848;28;20018;-75
2023/11/11 11:43:30;;;;;;;0.10;0.10;;;11.90;81.30;;;;;;5014470;28;20025;-75
2023/11/11 11:45:58;;;;;;;0.10;0.10;;;11.90;80.90;;;;;;5026475;28;20022;-75
2023/11/11 11:48:36;;;;;;;0.10;0.10;;;11.90;81.30;;;;;;5028730;28;20033;-78
2023/11/11 11:51:13;;;;;;;0.10;0.10;;;11.90;80.90;;;;;;5017161;28;20021;-76
2023/11/11 11:53:43;;;;;;;0.10;0.10;;;11.90;80.80;;;;;;5019605;28;20120;-81
2023/11/11 11:56:31;;;;;;;0.20;0.20;;;11.90;81.40;;;;;;5030834;28;20026;-78
2023/11/11 11:59:00;;;;;;;0.10;0.10;;;11.90;80.90;;;;;;5011147;28;20102;-84
2023/11/11 12:01:28;;;;;;;0.10;0.10;;;11.90;80.60;;;;;;5012622;28;20036;-78
2023/11/11 12:04:00;;;;;;;0.10;0.10;;;11.90;80.70;;;;;;5027130;28;20025;-75
2023/11/11 12:06:27;;;;;;;0.10;0.10;;;11.90;80.20;;;;;;5014029;28;20083;-75
2023/11/11 12:08:57;;;;;;;0.10;0.10;;;11.90;80.70;;;;;;5011451;28;20036;-76
2023/11/11 12:11:32;;;;;;;0.10;0.10;;;11.90;80.80;;;;;;5004630;28;20052;-76
2023/11/11 12:14:09;;;;;;;0.10;0.10;;;12.00;80.80;;;;;;5026301;28;20033;-76
2023/11/11 12:16:42;;;;;;;0.10;0.10;;;12.00;80.90;;;;;;5000286;28;20037;-76
2023/11/11 12:19:11;;;;;;;0.10;0.10;;;12.10;80.40;;;;;;5010885;28;20041;-75
2023/11/11 12:21:42;;;;;;;0.10;0.10;;;12.10;80.60;;;;;;5006427;28;20034;-75
2023/11/11 12:24:12;;;;;;;0.10;0.10;;;12.20;80.60;;;;;;5021922;28;20025;-75
2023/11/11 12:26:38;;;;;;;0.10;0.10;;;12.20;80.80;;;;;;5020292;28;20018;-75
2023/11/11 12:29:04;;;;;;;0.10;0.10;;;12.20;80.60;;;;;;5027495;28;20101;-75
2023/11/11 12:31:31;;;;;;;0.10;0.10;;;12.10;80.90;;;;;;5031001;28;20045;-75
2023/11/11 12:33:57;;;;;;;0.10;0.10;;;12.10;80.90;;;;;;5032735;28;20029;-76
2023/11/11 12:36:24;;;;;;;0.10;0.10;;;12.10;80.60;;;;;;5031381;28;20028;-76
2023/11/11 12:39:04;;;;;;;0.10;0.10;;;12.20;81.10;;;;;;5028027;28;20080;-76
2023/11/11 12:41:30;;;;;;;0.10;0.10;;;12.20;81.00;;;;;;5026476;28;20412;-76
2023/11/11 12:43:57;;;;;;;0.10;0.10;;;12.20;81.00;;;;;;5012158;28;20140;-76
2023/11/11 12:46:22;;;;;;;0.10;0.10;;;12.20;80.50;;;;;;5011630;28;20052;-76
2023/11/11 12:48:48;;;;;;;0.10;0.10;;;12.30;80.90;;;;;;5032144;28;20075;-75
2023/11/11 12:51:29;;;;;;;0.10;0.10;;;12.30;80.40;;;;;;5031676;28;20614;-76
2023/11/11 12:53:56;;;;;;;0.10;0.10;;;12.30;80.80;;;;;;5029254;28;20492;-76
2023/11/11 12:56:23;;;;;;;0.10;0.10;;;12.30;80.30;;;;;;5016798;28;20044;-75
2023/11/11 12:59:03;;;;;;;0.10;0.10;;;12.30;80.60;;;;;;5017106;28;20025;-76
2023/11/11 13:01:29;;;;;;;0.13;0.13;;;12.30;80.60;;;;;;5029950;28;20101;-76
2023/11/11 13:04:08;;;;;;;0.10;0.10;;;12.40;80.10;;;;;;5013293;28;20056;-76
2023/11/11 13:06:34;;;;;;;0.10;0.10;;;12.30;80.00;;;;;;5031784;28;20020;-76
2023/11/11 13:09:04;;;;;;;0.10;0.10;;;12.30;79.90;;;;;;5015668;28;20026;-75
2023/11/11 13:11:32;;;;;;;0.10;0.10;;;12.30;80.10;;;;;;5015382;28;20029;-76
2023/11/11 13:13:59;;;;;;;0.10;0.10;;;12.30;80.20;;;;;;5034972;28;20387;-76
2023/11/11 13:16:25;;;;;;;0.10;0.10;;;12.30;80.50;;;;;;5031039;28;20025;-76
2023/11/11 13:18:55;;;;;;;0.10;0.10;;;12.30;80.60;;;;;;5033322;28;20037;-76
2023/11/11 13:21:26;;;;;;;0.10;0.10;;;12.30;80.30;;;;;;5030649;28;20021;-76
2023/11/11 13:23:52;;;;;;;0.10;0.10;;;12.30;79.80;;;;;;5034126;28;20517;-76
2023/11/11 13:26:20;;;;;;;0.10;0.10;;;12.30;80.30;;;;;;5015791;28;20060;-76
2023/11/11 13:28:48;;;;;;;0.10;0.10;;;12.30;80.00;;;;;;5026157;28;20022;-76
2023/11/11 13:31:14;;;;;;;0.10;0.10;;;12.30;79.70;;;;;;5030351;28;20045;-76
2023/11/11 13:33:40;;;;;;;0.10;0.10;;;12.30;79.60;;;;;;5032761;28;20693;-76
2023/11/11 13:36:13;;;;;;;0.10;0.10;;;12.30;79.80;;;;;;5015140;28;20036;-76
2023/11/11 13:38:41;;;;;;;0.10;0.10;;;12.30;79.60;;;;;;5032985;28;20029;-76
2023/11/11 13:41:08;;;;;;;0.10;0.10;;;12.30;79.60;;;;;;5028157;28;20022;-76
2023/11/11 13:43:34;;;;;;;0.10;0.10;;;12.30;80.00;;;;;;5007591;28;20041;-76
2023/11/11 13:45:59;;;;;;;0.10;0.10;;;12.30;79.70;;;;;;5011655;28;20029;-75
2023/11/11 13:48:25;;;;;;;0.10;0.10;;;12.30;79.80;;;;;;5030171;28;20033;-76
2023/11/11 13:50:51;;;;;;;0.10;0.10;;;12.40;79.80;;;;;;5031283;28;20030;-76
2023/11/11 13:53:16;;;;;;;0.13;0.10;;;12.40;80.00;;;;;;5032908;28;20079;-75
2023/11/11 13:55:42;;;;;;;0.10;0.10;;;12.40;79.80;;;;;;5015959;28;20033;-76
2023/11/11 13:58:08;;;;;;;0.10;0.10;;;12.40;79.70;;;;;;5031136;28;20029;-76
2023/11/11 14:00:36;;;;;;;0.10;0.10;;;12.40;79.80;;;;;;5032195;28;20018;-76
2023/11/11 14:03:02;;;;;;;0.10;0.10;;;12.40;79.70;;;;;;5031326;28;20083;-80
2023/11/11 14:05:28;;;;;;;0.10;0.10;;;12.40;79.80;;;;;;5015081;28;20021;-74
2023/11/11 14:07:55;;;;;;;0.10;0.10;;;12.40;79.90;;;;;;5032071;28;20022;-75
2023/11/11 14:10:26;;;;;;;0.10;0.10;;;12.50;79.70;;;;;;5033204;28;20030;-75
2023/11/11 14:12:53;;;;;;;0.10;0.10;;;12.50;79.50;;;;;;5023086;28;20086;-75
2023/11/11 14:15:21;;;;;;;0.10;0.10;;;12.60;79.50;;;;;;5031526;28;20032;-76
2023/11/11 14:17:49;;;;;;;0.10;0.10;;;12.70;79.30;;;;;;5016335;28;20029;-75
2023/11/11 14:20:15;;;;;;;0.10;0.10;;;12.70;79.10;;;;;;5030386;28;20045;-76
2023/11/11 14:22:44;;;;;;;0.10;0.10;;;12.60;79.60;;;;;;5034020;28;20052;-75
2023/11/11 14:25:10;;;;;;;0.10;0.10;;;12.50;79.60;;;;;;5009231;28;20045;-76
2023/11/11 14:27:45;;;;;;;0.10;0.10;;;12.50;79.70;;;;;;5029806;28;20044;-75
2023/11/11 14:30:12;;;;;;;0.10;0.10;;;12.50;79.40;;;;;;5029791;28;20064;-76
2023/11/11 14:32:42;;;;;;;0.10;0.10;;;12.40;79.30;;;;;;5028826;28;20029;-78
2023/11/11 14:35:10;;;;;;;0.03;0.03;;;12.40;79.30;;;;;;5031393;28;20028;-77
2023/11/11 14:37:37;;;;;;;0.10;0.10;;;12.30;78.40;;;;;;5019981;28;20060;-75
2023/11/11 14:40:04;;;;;;;0.10;0.10;;;12.30;78.70;;;;;;5004394;28;20018;-76
2023/11/11 14:42:30;;;;;;;0.10;0.10;;;12.30;78.80;;;;;;5029090;28;20065;-76
2023/11/11 14:44:55;;;;;;;0.10;0.10;;;12.30;79.20;;;;;;5005322;28;20180;-76
2023/11/11 14:47:23;;;;;;;0.10;0.10;;;12.30;79.00;;;;;;5035093;28;20053;-77
2023/11/11 14:49:50;;;;;;;0.10;0.10;;;12.30;79.30;;;;;;5034147;28;20025;-75
2023/11/11 14:52:17;;;;;;;0.10;0.10;;;12.30;79.60;;;;;;5032059;28;20033;-75
2023/11/11 14:54:43;;;;;;;0.10;0.10;;;12.30;79.50;;;;;;5012222;28;20088;-76
2023/11/11 14:57:12;;;;;;;0.10;0.10;;;12.30;79.90;;;;;;5032799;28;20026;-76
2023/11/11 14:59:39;;;;;;;0.10;0.10;;;12.30;79.90;;;;;;5007642;28;20038;-75
2023/11/11 15:02:06;;;;;;;0.10;0.10;;;12.20;80.00;;;;;;5024064;28;20049;-75
2023/11/11 15:04:31;;;;;;;0.10;0.10;;;12.20;80.30;;;;;;5029084;28;20025;-75
2023/11/11 15:06:57;;;;;;;0.10;0.10;;;12.20;80.80;;;;;;5030521;28;20044;-75
2023/11/11 15:09:23;;;;;;;0.10;0.10;;;12.10;80.70;;;;;;5033181;28;20030;-76
2023/11/11 15:11:49;;;;;;;0.10;0.10;;;12.00;80.70;;;;;;5019529;28;20068;-76
2023/11/11 15:14:15;;;;;;;0.10;0.10;;;11.90;81.00;;;;;;5014208;28;20034;-76
2023/11/11 15:16:44;;;;;;;0.10;0.10;;;11.90;80.90;;;;;;5009479;28;20037;-76
2023/11/11 15:19:10;;;;;;;0.10;0.10;;;11.90;81.10;;;;;;5011665;28;20025;-76
2023/11/11 15:21:37;;;;;;;0.10;0.10;;;11.90;81.00;;;;;;5027498;28;20026;-78
2023/11/11 15:24:07;;;;;;;0.10;0.10;;;11.80;80.90;;;;;;5032725;28;20013;-76
2023/11/11 15:26:32;;;;;;;0.10;0.10;;;11.80;81.10;;;;;;5030815;28;20032;-76
2023/11/11 15:28:58;;;;;;;0.10;0.10;;;11.80;81.30;;;;;;5010484;28;20472;-76
2023/11/11 15:31:28;;;;;;;0.10;0.10;;;11.80;81.00;;;;;;5012746;28;20046;-76
2023/11/11 15:33:54;;;;;;;0.10;0.10;;;11.70;81.20;;;;;;5003202;28;20029;-76
2023/11/11 15:36:26;;;;;;;0.10;0.10;;;11.70;81.40;;;;;;5011047;28;20022;-76
2023/11/11 15:38:56;;;;;;;0.10;0.10;;;11.60;81.70;;;;;;5003188;28;20049;-76
2023/11/11 15:41:22;;;;;;;0.10;0.10;;;11.60;81.70;;;;;;5014279;28;20018;-75
2023/11/11 15:43:48;;;;;;;0.10;0.10;;;11.60;81.90;;;;;;5023561;28;20117;-76
2023/11/11 15:46:15;;;;;;;0.10;0.10;;;11.50;82.00;;;;;;5023801;28;20064;-76
2023/11/11 15:48:41;;;;;;;0.10;0.10;;;11.50;81.70;;;;;;5020592;28;20025;-76
2023/11/11 15:51:09;;;;;;;0.10;0.10;;;11.50;82.00;;;;;;5016685;28;20025;-78
2023/11/11 15:53:35;;;;;;;0.10;0.10;;;11.50;82.10;;;;;;5014134;28;20033;-78
2023/11/11 15:56:01;;;;;;;0.10;0.10;;;11.50;82.10;;;;;;5022350;28;20378;-77
2023/11/11 15:58:26;;;;;;;0.10;0.10;;;11.50;82.20;;;;;;5030177;28;20038;-77
2023/11/11 16:00:52;;;;;;;0.10;0.10;;;11.50;82.10;;;;;;5017413;28;20018;-76
2023/11/11 16:03:17;;;;;;;0.10;0.10;;;11.50;82.30;;;;;;5006358;28;20026;-77
2023/11/11 16:05:43;;;;;;;0.10;0.10;;;11.50;82.20;;;;;;5006295;28;20025;-77
2023/11/11 16:08:09;;;;;;;0.10;0.10;;;11.50;82.30;;;;;;5010704;28;20030;-76
2023/11/11 16:10:35;;;;;;;0.10;0.10;;;11.50;82.10;;;;;;5017407;28;20044;-76
2023/11/11 16:13:01;;;;;;;0.10;0.10;;;11.40;82.20;;;;;;5009856;28;20108;-79
2023/11/11 16:15:26;;;;;;;0.10;0.10;;;11.30;82.30;;;;;;5009782;28;20168;-76
2023/11/11 16:17:52;;;;;;;0.08;0.08;;;11.30;82.30;;;;;;5015774;28;20030;-76
2023/11/11 16:20:18;;;;;;;0.10;0.10;;;11.30;82.50;;;;;;5015572;28;20026;-76
2023/11/11 16:22:47;;;;;;;0.10;0.10;;;11.20;82.50;;;;;;5017449;28;20029;-76
2023/11/11 16:25:13;;;;;;;0.10;0.10;;;11.20;82.70;;;;;;5016371;28;20018;-76
2023/11/11 16:27:41;;;;;;;0.15;0.15;;;11.20;82.80;;;;;;4987770;28;20030;-76
2023/11/11 16:30:09;;;;;;;0.10;0.10;;;11.30;82.90;;;;;;5018008;28;20055;-76
2023/11/11 16:32:35;;;;;;;0.10;0.10;;;11.30;82.80;;;;;;5015490;28;20042;-76
2023/11/11 16:35:01;;;;;;;0.10;0.10;;;11.30;82.60;;;;;;4998376;28;20056;-76
2023/11/11 16:37:26;;;;;;;0.10;0.10;;;11.20;82.60;;;;;;5016242;28;20038;-76
2023/11/11 16:39:52;;;;;;;0.10;0.10;;;11.20;82.50;;;;;;4998305;28;20045;-78
2023/11/11 16:42:18;;;;;;;0.10;0.10;;;11.20;82.90;;;;;;4996364;28;20037;-76
2023/11/11 16:44:46;;;;;;;0.10;0.10;;;11.20;82.90;;;;;;5016288;28;20056;-77
2023/11/11 16:47:12;;;;;;;0.10;0.10;;;11.20;82.90;;;;;;4997917;28;20033;-77
2023/11/11 16:49:38;;;;;;;0.10;0.10;;;11.20;82.90;;;;;;5015714;28;20034;-77
2023/11/11 16:52:05;;;;;;;0.10;0.10;;;11.20;82.90;;;;;;5016098;28;20029;-78
2023/11/11 16:54:31;;;;;;;0.10;0.10;;;11.20;82.80;;;;;;5015482;28;20069;-78
2023/11/11 16:56:56;;;;;;;0.10;0.10;;;11.20;82.90;;;;;;5016656;28;20033;-76
2023/11/11 16:59:23;;;;;;;0.10;0.10;;;11.20;82.90;;;;;;5017108;28;20026;-76
2023/11/11 17:01:49;;;;;;;0.10;0.10;;;11.10;83.00;;;;;;5017685;28;20021;-76
2023/11/11 17:04:15;;;;;;;0.10;0.10;;;11.00;83.10;;;;;;4998034;28;20468;-76
2023/11/11 17:06:41;;;;;;;0.10;0.10;;;11.00;83.20;;;;;;4997286;28;20080;-76
2023/11/11 17:09:11;;;;;;;0.10;0.10;;;11.00;83.30;;;;;;5015040;28;20026;-76
2023/11/11 17:11:43;;;;;;;0.10;0.10;;;10.90;83.50;;;;;;4995532;28;20034;-75
2023/11/11 17:14:10;;;;;;;0.10;0.10;;;11.00;83.50;;;;;;4997052;28;20033;-76
2023/11/11 17:16:37;;;;;;;0.10;0.10;;;11.00;83.50;;;;;;5019121;28;20489;-76
2023/11/11 17:19:03;;;;;;;0.10;0.10;;;10.90;83.40;;;;;;5008078;28;20099;-76
2023/11/11 17:21:28;;;;;;;0.10;0.10;;;10.80;83.50;;;;;;5006666;28;20121;-76
2023/11/11 17:23:54;;;;;;;0.10;0.10;;;10.90;83.50;;;;;;5029273;28;20021;-76
2023/11/11 17:26:21;;;;;;;0.10;0.10;;;10.90;83.60;;;;;;5029247;28;20120;-76
2023/11/11 17:28:47;;;;;;;0.10;0.10;;;10.80;83.50;;;;;;5019409;28;20037;-76
2023/11/11 17:31:12;;;;;;;0.10;0.10;;;10.80;83.60;;;;;;5024691;28;20057;-77
2023/11/11 17:33:40;;;;;;;0.10;0.10;;;10.80;83.70;;;;;;5037582;28;20021;-76
2023/11/11 17:36:09;;;;;;;0.17;0.17;;;10.80;83.80;;;;;;5026991;28;20512;-75
2023/11/11 17:38:37;;;;;;;0.10;0.10;;;10.80;83.80;;;;;;5009629;28;20025;-79
2023/11/11 17:41:08;;;;;;;0.10;0.10;;;10.80;83.90;;;;;;5023301;28;20064;-77
2023/11/11 17:43:34;;;;;;;0.20;0.20;;;10.80;84.00;;;;;;5028601;28;21349;-75
2023/11/11 17:46:00;;;;;;;0.00;0.00;;;10.80;84.00;;;;;;5033998;28;20022;-78
2023/11/11 17:48:35;;;;;;;0.10;0.10;;;10.90;84.10;;;;;;5016530;28;20065;-77
2023/11/11 17:51:02;;;;;;;0.20;0.20;;;10.80;84.10;;;;;;5032835;28;20030;-79
2023/11/11 17:53:28;;;;;;;0.10;0.10;;;10.80;84.10;;;;;;5017709;28;20033;-76
2023/11/11 17:55:59;;;;;;;0.10;0.10;;;10.80;84.10;;;;;;5021109;28;20039;-76
2023/11/11 17:58:25;;;;;;;0.10;0.10;;;10.70;84.10;;;;;;5019800;28;20037;-81
2023/11/11 18:00:51;;;;;;;0.10;0.10;;;10.70;84.30;;;;;;5039288;28;20482;-77
2023/11/11 18:03:17;;;;;;;0.10;0.10;;;10.60;84.50;;;;;;5019879;28;20064;-78
2023/11/11 18:05:42;;;;;;;0.10;0.10;;;10.60;84.40;;;;;;5020964;28;20022;-77
2023/11/11 18:08:08;;;;;;;0.13;0.13;;;10.60;84.70;;;;;;5038776;28;20514;-79
2023/11/11 18:10:35;;;;;;;0.10;0.10;;;10.60;84.70;;;;;;5020156;28;20033;-78
2023/11/11 18:13:02;;;;;;;0.10;0.10;;;10.50;84.80;;;;;;5020025;28;20026;-74
2023/11/11 18:15:28;;;;;;;0.10;0.10;;;10.60;85.00;;;;;;5032526;28;20392;-76
2023/11/11 18:17:53;;;;;;;0.10;0.10;;;10.60;84.80;;;;;;5019940;28;20108;-76
2023/11/11 18:20:19;;;;;;;0.10;0.10;;;10.70;84.80;;;;;;5037954;28;20037;-75
2023/11/11 18:22:45;;;;;;;0.10;0.10;;;10.60;84.90;;;;;;5020006;28;20099;-75